This is the latest recevied weather packets stored in our database for station/object SP3PDK-1. If no packets are shown the sender has not sent any weather packets the latest 10 day(s).
| Time | Temp. | Humidity | Pressure | Rain* | Wind** | Luminosity | Snow |
|---|---|---|---|---|---|---|---|
| 1777817058 | 29.44° C | 19% | 1012 hPa | - | - | - | - |
| 1777816458 | 29.44° C | 18% | 1012 hPa | - | - | - | - |
| 1777815253 | 28.89° C | 18% | 1012.4 hPa | - | - | - | - |
| 1777814655 | 28.89° C | 19% | 1012.4 hPa | - | - | - | - |
| 1777814054 | 29.44° C | 18% | 1012.6 hPa | - | - | - | - |
| 1777812854 | 28.89° C | 21% | 1012.8 hPa | - | - | - | - |
| 1777812258 | 29.44° C | 19% | 1012.8 hPa | - | - | - | - |
| 1777811654 | 29.44° C | 19% | 1013 hPa | - | - | - | - |
| 1777810454 | 29.44° C | 20% | 1013.1 hPa | - | - | - | - |
| 1777809853 | 29.44° C | 19% | 1013.1 hPa | - | - | - | - |
| 1777809257 | 29.44° C | 19% | 1013.3 hPa | - | - | - | - |
| 1777808053 | 29.44° C | 19% | 1013.4 hPa | - | - | - | - |
| 1777807454 | 28.89° C | 20% | 1013.5 hPa | - | - | - | - |
| 1777806858 | 29.44° C | 19% | 1013.7 hPa | - | - | - | - |
| 1777805658 | 29.44° C | 20% | 1013.9 hPa | - | - | - | - |
| 1777805058 | 28.89° C | 20% | 1014 hPa | - | - | - | - |
| 1777804454 | 28.89° C | 20% | 1014.1 hPa | - | - | - | - |
| 1777803858 | 28.89° C | 20% | 1014.1 hPa | - | - | - | - |
| 1777803254 | 28.33° C | 22% | 1014.3 hPa | - | - | - | - |
| 1777802657 | 28.89° C | 22% | 1014.5 hPa | - | - | - | - |
| 1777802058 | 28.33° C | 23% | 1014.5 hPa | - | - | - | - |
| 1777801454 | 27.78° C | 24% | 1014.6 hPa | - | - | - | - |
| 1777800856 | 27.78° C | 25% | 1014.6 hPa | - | - | - | - |
| 1777800254 | 27.78° C | 24% | 1014.7 hPa | - | - | - | - |
| 1777799658 | 27.22° C | 25% | 1014.8 hPa | - | - | - | - |
* Rain since midnight (hover to see other rain measurements)
** Current wind speed in m/s (hover to see current wind gust speed)